sensor_id;sensor_type;location;lat;lon;timestamp;P1;durP1;ratioP1;P2;durP2;ratioP2
35394;SDS011;21500;45.308;9.488;2023-04-15T09:37:40;5.57;;;4.20;;
35394;SDS011;21500;45.308;9.488;2023-04-15T09:40:10;6.40;;;4.03;;
35394;SDS011;21500;45.308;9.488;2023-04-15T09:42:53;4.43;;;4.03;;
35394;SDS011;21500;45.308;9.488;2023-04-15T09:45:20;6.32;;;3.78;;
35394;SDS011;21500;45.308;9.488;2023-04-15T09:47:48;5.05;;;3.78;;
35394;SDS011;21500;45.308;9.488;2023-04-15T09:50:20;5.20;;;3.60;;
35394;SDS011;21500;45.308;9.488;2023-04-15T09:52:51;5.13;;;3.88;;
35394;SDS011;21500;45.308;9.488;2023-04-15T09:55:18;4.63;;;3.85;;
35394;SDS011;21500;45.308;9.488;2023-04-15T09:57:47;4.35;;;2.97;;
35394;SDS011;21500;45.308;9.488;2023-04-15T10:00:14;6.72;;;3.55;;
35394;SDS011;21500;45.308;9.488;2023-04-15T10:02:41;8.27;;;3.13;;
35394;SDS011;21500;45.308;9.488;2023-04-15T10:05:41;6.72;;;3.72;;
35394;SDS011;21500;45.308;9.488;2023-04-15T10:08:08;4.65;;;3.25;;
35394;SDS011;21500;45.308;9.488;2023-04-15T10:10:38;4.53;;;3.42;;
35394;SDS011;21500;45.308;9.488;2023-04-15T10:13:05;4.70;;;2.63;;
35394;SDS011;21500;45.308;9.488;2023-04-15T10:15:35;3.65;;;2.35;;
35394;SDS011;21500;45.308;9.488;2023-04-15T10:18:03;4.00;;;3.60;;
35394;SDS011;21500;45.308;9.488;2023-04-15T10:20:33;4.38;;;2.47;;
35394;SDS011;21500;45.308;9.488;2023-04-15T10:23:01;8.80;;;3.50;;
35394;SDS011;21500;45.308;9.488;2023-04-15T10:25:28;3.90;;;3.08;;
35394;SDS011;21500;45.308;9.488;2023-04-15T10:27:55;5.03;;;3.15;;
35394;SDS011;21500;45.308;9.488;2023-04-15T10:30:23;5.40;;;3.58;;
35394;SDS011;21500;45.308;9.488;2023-04-15T10:32:50;5.88;;;3.65;;
35394;SDS011;21500;45.308;9.488;2023-04-15T10:36:04;5.28;;;3.38;;
35394;SDS011;21500;45.308;9.488;2023-04-15T10:42:16;6.88;;;3.72;;
35394;SDS011;21500;45.308;9.488;2023-04-15T10:44:44;6.88;;;2.88;;
35394;SDS011;21500;45.308;9.488;2023-04-15T10:47:14;6.18;;;3.38;;
35394;SDS011;21500;45.308;9.488;2023-04-15T10:52:13;7.55;;;3.70;;
35394;SDS011;21500;45.308;9.488;2023-04-15T10:54:40;6.75;;;3.35;;
35394;SDS011;21500;45.308;9.488;2023-04-15T10:57:15;3.53;;;3.22;;
35394;SDS011;21500;45.308;9.488;2023-04-15T10:59:59;4.78;;;3.47;;
35394;SDS011;21500;45.308;9.488;2023-04-15T11:05:09;6.32;;;3.53;;
35394;SDS011;21500;45.308;9.488;2023-04-15T11:07:37;6.15;;;4.03;;
35394;SDS011;21500;45.308;9.488;2023-04-15T11:12:41;4.53;;;3.08;;
35394;SDS011;21500;45.308;9.488;2023-04-15T11:15:27;7.32;;;2.80;;
35394;SDS011;21500;45.308;9.488;2023-04-15T11:18:10;5.25;;;3.90;;
35394;SDS011;21500;45.308;9.488;2023-04-15T11:20:46;6.93;;;4.45;;
35394;SDS011;21500;45.308;9.488;2023-04-15T11:23:29;4.68;;;3.22;;
35394;SDS011;21500;45.308;9.488;2023-04-15T11:27:00;13.85;;;12.07;;
35394;SDS011;21500;45.308;9.488;2023-04-15T11:30:18;20.55;;;18.35;;
35394;SDS011;21500;45.308;9.488;2023-04-15T11:33:11;10.38;;;9.35;;
35394;SDS011;21500;45.308;9.488;2023-04-15T11:35:48;8.57;;;4.93;;
35394;SDS011;21500;45.308;9.488;2023-04-15T11:38:34;5.28;;;3.33;;
35394;SDS011;21500;45.308;9.488;2023-04-15T11:41:08;5.82;;;3.75;;
35394;SDS011;21500;45.308;9.488;2023-04-15T11:43:43;4.55;;;3.03;;
35394;SDS011;21500;45.308;9.488;2023-04-15T11:46:27;7.75;;;4.13;;
35394;SDS011;21500;45.308;9.488;2023-04-15T11:49:28;4.22;;;3.72;;
35394;SDS011;21500;45.308;9.488;2023-04-15T11:52:20;5.30;;;4.10;;
35394;SDS011;21500;45.308;9.488;2023-04-15T11:55:06;4.85;;;3.67;;
35394;SDS011;21500;45.308;9.488;2023-04-15T12:27:53;5.57;;;4.18;;
35394;SDS011;21500;45.308;9.488;2023-04-15T12:30:47;7.28;;;4.93;;
35394;SDS011;21500;45.308;9.488;2023-04-15T12:36:47;8.10;;;5.75;;
35394;SDS011;21500;45.308;9.488;2023-04-15T12:39:46;5.65;;;4.25;;
35394;SDS011;21500;45.308;9.488;2023-04-15T12:43:08;8.98;;;4.53;;
35394;SDS011;21500;45.308;9.488;2023-04-15T12:46:13;5.28;;;4.25;;
35394;SDS011;21500;45.308;9.488;2023-04-15T12:49:10;5.35;;;4.40;;
35394;SDS011;21500;45.308;9.488;2023-04-15T12:51:39;4.75;;;3.72;;
35394;SDS011;21500;45.308;9.488;2023-04-15T12:54:28;5.25;;;4.03;;
35394;SDS011;21500;45.308;9.488;2023-04-15T12:57:10;3.60;;;3.28;;
35394;SDS011;21500;45.308;9.488;2023-04-15T12:59:47;3.70;;;3.28;;
35394;SDS011;21500;45.308;9.488;2023-04-15T13:02:37;5.57;;;4.20;;
35394;SDS011;21500;45.308;9.488;2023-04-15T13:05:29;5.43;;;3.80;;
35394;SDS011;21500;45.308;9.488;2023-04-15T13:08:36;5.78;;;4.63;;
35394;SDS011;21500;45.308;9.488;2023-04-15T13:20:31;7.82;;;5.18;;
35394;SDS011;21500;45.308;9.488;2023-04-15T13:23:56;6.45;;;5.85;;
35394;SDS011;21500;45.308;9.488;2023-04-15T13:26:56;5.97;;;4.75;;
35394;SDS011;21500;45.308;9.488;2023-04-15T13:41:48;5.93;;;5.32;;
35394;SDS011;21500;45.308;9.488;2023-04-15T14:44:19;6.13;;;5.38;;
35394;SDS011;21500;45.308;9.488;2023-04-15T14:46:45;7.45;;;5.90;;
35394;SDS011;21500;45.308;9.488;2023-04-15T14:49:11;9.07;;;6.45;;
35394;SDS011;21500;45.308;9.488;2023-04-15T14:51:37;8.82;;;5.80;;
35394;SDS011;21500;45.308;9.488;2023-04-15T14:54:03;6.57;;;5.97;;
35394;SDS011;21500;45.308;9.488;2023-04-15T14:56:29;6.28;;;5.32;;
35394;SDS011;21500;45.308;9.488;2023-04-15T14:59:00;9.25;;;6.57;;
35394;SDS011;21500;45.308;9.488;2023-04-15T15:01:28;6.60;;;6.00;;
35394;SDS011;21500;45.308;9.488;2023-04-15T15:03:54;6.43;;;5.72;;
35394;SDS011;21500;45.308;9.488;2023-04-15T15:06:20;7.03;;;6.38;;
35394;SDS011;21500;45.308;9.488;2023-04-15T15:08:47;7.72;;;7.03;;
35394;SDS011;21500;45.308;9.488;2023-04-15T15:11:14;8.60;;;6.57;;
35394;SDS011;21500;45.308;9.488;2023-04-15T15:13:41;6.75;;;5.68;;
35394;SDS011;21500;45.308;9.488;2023-04-15T15:16:07;7.10;;;5.78;;
35394;SDS011;21500;45.308;9.488;2023-04-15T15:18:34;7.40;;;6.55;;
35394;SDS011;21500;45.308;9.488;2023-04-15T15:21:01;7.30;;;6.60;;
35394;SDS011;21500;45.308;9.488;2023-04-15T15:23:27;7.68;;;6.85;;
35394;SDS011;21500;45.308;9.488;2023-04-15T15:25:55;7.15;;;5.70;;
35394;SDS011;21500;45.308;9.488;2023-04-15T15:28:32;7.32;;;6.65;;
35394;SDS011;21500;45.308;9.488;2023-04-15T15:31:17;10.77;;;7.75;;
35394;SDS011;21500;45.308;9.488;2023-04-15T15:33:43;7.72;;;6.07;;
35394;SDS011;21500;45.308;9.488;2023-04-15T15:36:16;9.82;;;6.88;;
35394;SDS011;21500;45.308;9.488;2023-04-15T15:38:55;9.13;;;7.07;;
35394;SDS011;21500;45.308;9.488;2023-04-15T15:42:13;8.88;;;6.78;;
35394;SDS011;21500;45.308;9.488;2023-04-15T15:45:30;9.38;;;8.02;;
35394;SDS011;21500;45.308;9.488;2023-04-15T15:48:40;8.80;;;7.65;;
35394;SDS011;21500;45.308;9.488;2023-04-15T16:17:57;8.10;;;7.30;;
35394;SDS011;21500;45.308;9.488;2023-04-15T16:20:35;8.07;;;7.28;;
35394;SDS011;21500;45.308;9.488;2023-04-15T16:23:15;8.98;;;8.18;;
35394;SDS011;21500;45.308;9.488;2023-04-15T16:25:46;8.05;;;7.28;;
35394;SDS011;21500;45.308;9.488;2023-04-15T16:28:27;9.70;;;8.80;;
35394;SDS011;21500;45.308;9.488;2023-04-15T16:30:54;8.82;;;7.97;;
35394;SDS011;21500;45.308;9.488;2023-04-15T16:33:25;10.05;;;7.85;;
35394;SDS011;21500;45.308;9.488;2023-04-15T16:35:51;9.07;;;7.65;;
35394;SDS011;21500;45.308;9.488;2023-04-15T16:38:20;7.95;;;7.15;;
35394;SDS011;21500;45.308;9.488;2023-04-15T16:40:58;9.85;;;8.20;;
35394;SDS011;21500;45.308;9.488;2023-04-15T16:43:44;8.73;;;7.90;;
35394;SDS011;21500;45.308;9.488;2023-04-15T16:46:35;7.25;;;6.55;;
35394;SDS011;21500;45.308;9.488;2023-04-15T16:49:24;7.25;;;6.55;;
35394;SDS011;21500;45.308;9.488;2023-04-15T16:51:52;7.97;;;6.50;;
35394;SDS011;21500;45.308;9.488;2023-04-15T16:54:38;8.60;;;6.13;;
35394;SDS011;21500;45.308;9.488;2023-04-15T16:57:08;9.70;;;6.97;;
35394;SDS011;21500;45.308;9.488;2023-04-15T16:59:34;11.25;;;8.50;;
35394;SDS011;21500;45.308;9.488;2023-04-15T17:02:00;8.25;;;6.65;;
35394;SDS011;21500;45.308;9.488;2023-04-15T17:04:27;9.38;;;7.88;;
35394;SDS011;21500;45.308;9.488;2023-04-15T17:06:53;10.43;;;8.90;;
35394;SDS011;21500;45.308;9.488;2023-04-15T17:09:19;8.48;;;7.65;;
35394;SDS011;21500;45.308;9.488;2023-04-15T17:11:45;8.57;;;7.65;;
35394;SDS011;21500;45.308;9.488;2023-04-15T17:14:11;9.95;;;7.90;;
35394;SDS011;21500;45.308;9.488;2023-04-15T17:16:37;9.23;;;8.32;;
35394;SDS011;21500;45.308;9.488;2023-04-15T17:19:02;8.70;;;7.53;;
35394;SDS011;21500;45.308;9.488;2023-04-15T17:21:28;8.85;;;7.95;;
35394;SDS011;21500;45.308;9.488;2023-04-15T17:23:56;10.05;;;7.85;;
35394;SDS011;21500;45.308;9.488;2023-04-15T17:26:21;11.38;;;6.13;;
35394;SDS011;21500;45.308;9.488;2023-04-15T17:28:47;7.72;;;4.30;;
35394;SDS011;21500;45.308;9.488;2023-04-15T17:31:13;4.95;;;3.63;;
35394;SDS011;21500;45.308;9.488;2023-04-15T17:33:45;4.38;;;3.50;;
35394;SDS011;21500;45.308;9.488;2023-04-15T17:36:12;4.28;;;3.47;;
35394;SDS011;21500;45.308;9.488;2023-04-15T17:38:38;4.70;;;3.45;;
35394;SDS011;21500;45.308;9.488;2023-04-15T17:41:04;7.40;;;6.63;;
35394;SDS011;21500;45.308;9.488;2023-04-15T17:43:32;7.78;;;4.20;;
35394;SDS011;21500;45.308;9.488;2023-04-15T17:45:59;3.75;;;3.38;;
35394;SDS011;21500;45.308;9.488;2023-04-15T17:48:26;7.70;;;5.30;;
35394;SDS011;21500;45.308;9.488;2023-04-15T17:50:54;6.90;;;4.93;;
35394;SDS011;21500;45.308;9.488;2023-04-15T17:53:22;5.95;;;4.45;;
35394;SDS011;21500;45.308;9.488;2023-04-15T17:55:56;5.78;;;5.15;;
35394;SDS011;21500;45.308;9.488;2023-04-15T17:58:24;12.55;;;9.05;;
35394;SDS011;21500;45.308;9.488;2023-04-15T18:00:59;7.35;;;5.88;;
35394;SDS011;21500;45.308;9.488;2023-04-15T18:03:36;5.93;;;5.03;;
35394;SDS011;21500;45.308;9.488;2023-04-15T18:06:06;7.63;;;4.85;;
35394;SDS011;21500;45.308;9.488;2023-04-15T18:08:36;11.73;;;4.25;;
35394;SDS011;21500;45.308;9.488;2023-04-15T18:11:05;6.72;;;3.72;;
35394;SDS011;21500;45.308;9.488;2023-04-15T18:14:18;6.20;;;4.95;;
35394;SDS011;21500;45.308;9.488;2023-04-15T18:16:57;6.80;;;4.78;;
35394;SDS011;21500;45.308;9.488;2023-04-15T18:19:57;6.90;;;4.55;;
35394;SDS011;21500;45.308;9.488;2023-04-15T18:27:01;6.13;;;4.72;;
35394;SDS011;21500;45.308;9.488;2023-04-15T20:14:14;2.28;;;2.08;;
35394;SDS011;21500;45.308;9.488;2023-04-15T20:16:39;3.58;;;2.83;;
35394;SDS011;21500;45.308;9.488;2023-04-15T20:19:05;2.70;;;2.50;;
35394;SDS011;21500;45.308;9.488;2023-04-15T20:21:34;3.05;;;2.45;;
35394;SDS011;21500;45.308;9.488;2023-04-15T20:24:01;2.40;;;2.20;;
35394;SDS011;21500;45.308;9.488;2023-04-15T20:26:28;3.00;;;2.30;;
35394;SDS011;21500;45.308;9.488;2023-04-15T20:28:55;3.72;;;2.15;;
35394;SDS011;21500;45.308;9.488;2023-04-15T20:31:21;2.53;;;2.03;;
35394;SDS011;21500;45.308;9.488;2023-04-15T20:33:47;4.22;;;2.65;;
35394;SDS011;21500;45.308;9.488;2023-04-15T20:36:13;2.60;;;2.40;;
35394;SDS011;21500;45.308;9.488;2023-04-15T20:38:40;2.33;;;2.10;;
35394;SDS011;21500;45.308;9.488;2023-04-15T20:41:07;7.20;;;3.45;;
35394;SDS011;21500;45.308;9.488;2023-04-15T20:43:33;4.65;;;2.90;;
35394;SDS011;21500;45.308;9.488;2023-04-15T20:46:00;2.63;;;2.42;;
35394;SDS011;21500;45.308;9.488;2023-04-15T20:48:26;3.20;;;2.90;;
35394;SDS011;21500;45.308;9.488;2023-04-15T20:50:54;4.68;;;3.67;;
35394;SDS011;21500;45.308;9.488;2023-04-15T20:53:21;3.97;;;3.00;;
35394;SDS011;21500;45.308;9.488;2023-04-15T20:55:48;3.00;;;2.70;;
35394;SDS011;21500;45.308;9.488;2023-04-15T20:58:15;5.15;;;3.67;;
35394;SDS011;21500;45.308;9.488;2023-04-15T21:00:47;2.95;;;2.65;;
35394;SDS011;21500;45.308;9.488;2023-04-15T21:03:18;3.08;;;2.22;;
35394;SDS011;21500;45.308;9.488;2023-04-15T21:05:43;3.70;;;2.95;;
35394;SDS011;21500;45.308;9.488;2023-04-15T21:08:09;3.10;;;2.80;;
35394;SDS011;21500;45.308;9.488;2023-04-15T21:10:35;3.58;;;3.28;;
35394;SDS011;21500;45.308;9.488;2023-04-15T21:13:01;3.83;;;3.42;;
35394;SDS011;21500;45.308;9.488;2023-04-15T21:15:40;4.03;;;3.40;;
35394;SDS011;21500;45.308;9.488;2023-04-15T21:18:28;3.92;;;3.35;;
35394;SDS011;21500;45.308;9.488;2023-04-15T21:21:01;4.38;;;3.60;;
35394;SDS011;21500;45.308;9.488;2023-04-15T21:23:27;3.92;;;3.50;;
35394;SDS011;21500;45.308;9.488;2023-04-15T21:25:54;5.22;;;3.65;;
35394;SDS011;21500;45.308;9.488;2023-04-15T21:28:27;4.93;;;4.05;;
35394;SDS011;21500;45.308;9.488;2023-04-15T21:31:00;5.22;;;4.60;;
